sensor_id;sensor_type;location;lat;lon;timestamp;pressure;altitude;pressure_sealevel;temperature;humidity
7524;BME280;3803;51.666;7.630;2022-08-01T00:00:22;100925.88;;;22.59;67.34
7524;BME280;3803;51.666;7.630;2022-08-01T00:00:43;100919.72;;;22.57;67.60
7524;BME280;3803;51.666;7.630;2022-08-01T00:01:04;100923.22;;;22.59;67.35
7524;BME280;3803;51.666;7.630;2022-08-01T00:01:25;100933.84;;;22.60;67.57
7524;BME280;3803;51.666;7.630;2022-08-01T00:01:46;100930.28;;;22.60;67.54
7524;BME280;3803;51.666;7.630;2022-08-01T00:02:08;100928.53;;;22.59;67.28
7524;BME280;3803;51.666;7.630;2022-08-01T00:02:29;100934.69;;;22.61;67.46
7524;BME280;3803;51.666;7.630;2022-08-01T00:02:51;100924.94;;;22.63;67.48
7524;BME280;3803;51.666;7.630;2022-08-01T00:03:12;100930.25;;;22.63;67.20
7524;BME280;3803;51.666;7.630;2022-08-01T00:03:33;100933.75;;;22.65;67.25
7524;BME280;3803;51.666;7.630;2022-08-01T00:03:54;100933.75;;;22.65;67.24
7524;BME280;3803;51.666;7.630;2022-08-01T00:04:15;100929.38;;;22.61;67.36
7524;BME280;3803;51.666;7.630;2022-08-01T00:04:36;100924.03;;;22.64;67.20
7524;BME280;3803;51.666;7.630;2022-08-01T00:04:58;100931.19;;;22.60;67.16
7524;BME280;3803;51.666;7.630;2022-08-01T00:05:22;100931.13;;;22.62;67.33
7524;BME280;3803;51.666;7.630;2022-08-01T00:05:43;100924.94;;;22.63;67.38
7524;BME280;3803;51.666;7.630;2022-08-01T00:06:05;100934.69;;;22.63;67.37
7524;BME280;3803;51.666;7.630;2022-08-01T00:06:28;100925.03;;;22.57;67.39
7524;BME280;3803;51.666;7.630;2022-08-01T00:06:50;100917.97;;;22.56;67.29
7524;BME280;3803;51.666;7.630;2022-08-01T00:07:11;100934.69;;;22.63;67.38
7524;BME280;3803;51.666;7.630;2022-08-01T00:07:36;100922.31;;;22.60;67.39
7524;BME280;3803;51.666;7.630;2022-08-01T00:07:57;100922.38;;;22.57;67.30
7524;BME280;3803;51.666;7.630;2022-08-01T00:08:18;100925.81;;;22.62;67.43
7524;BME280;3803;51.666;7.630;2022-08-01T00:08:39;100926.72;;;22.61;67.14
7524;BME280;3803;51.666;7.630;2022-08-01T00:09:03;100917.00;;;22.58;67.21
7524;BME280;3803;51.666;7.630;2022-08-01T00:09:24;100930.41;;;22.54;67.42
7524;BME280;3803;51.666;7.630;2022-08-01T00:09:45;100931.22;;;22.57;67.39
7524;BME280;3803;51.666;7.630;2022-08-01T00:10:11;100930.38;;;22.57;67.42
7524;BME280;3803;51.666;7.630;2022-08-01T00:10:32;100914.59;;;22.48;67.49
7524;BME280;3803;51.666;7.630;2022-08-01T00:10:53;100915.44;;;22.50;67.35
7524;BME280;3803;51.666;7.630;2022-08-01T00:11:14;100927.81;;;22.52;67.60
7524;BME280;3803;51.666;7.630;2022-08-01T00:11:35;100928.63;;;22.56;67.40
7524;BME280;3803;51.666;7.630;2022-08-01T00:11:56;100927.69;;;22.57;67.29
7524;BME280;3803;51.666;7.630;2022-08-01T00:12:17;100921.50;;;22.55;67.47
7524;BME280;3803;51.666;7.630;2022-08-01T00:12:39;100926.91;;;22.52;67.55
7524;BME280;3803;51.666;7.630;2022-08-01T00:13:03;100923.28;;;22.56;67.49
7524;BME280;3803;51.666;7.630;2022-08-01T00:13:24;100918.91;;;22.53;67.37
7524;BME280;3803;51.666;7.630;2022-08-01T00:13:45;100922.41;;;22.55;67.37
7524;BME280;3803;51.666;7.630;2022-08-01T00:14:06;100923.28;;;22.56;67.52
7524;BME280;3803;51.666;7.630;2022-08-01T00:14:27;100926.88;;;22.53;67.53
7524;BME280;3803;51.666;7.630;2022-08-01T00:14:48;100932.13;;;22.58;67.21
7524;BME280;3803;51.666;7.630;2022-08-01T00:15:11;100926.84;;;22.55;67.41
7524;BME280;3803;51.666;7.630;2022-08-01T00:15:32;100929.34;;;22.63;67.22
7524;BME280;3803;51.666;7.630;2022-08-01T00:15:54;100922.34;;;22.58;67.41
7524;BME280;3803;51.666;7.630;2022-08-01T00:16:15;100930.28;;;22.60;67.12
7524;BME280;3803;51.666;7.630;2022-08-01T00:16:39;100924.06;;;22.61;67.19
7524;BME280;3803;51.666;7.630;2022-08-01T00:17:00;100916.16;;;22.58;67.19
7524;BME280;3803;51.666;7.630;2022-08-01T00:17:21;100921.47;;;22.58;67.33
7524;BME280;3803;51.666;7.630;2022-08-01T00:17:42;100932.97;;;22.58;67.26
7524;BME280;3803;51.666;7.630;2022-08-01T00:18:03;100918.94;;;22.52;67.46
7524;BME280;3803;51.666;7.630;2022-08-01T00:18:24;100932.03;;;22.61;67.23
7524;BME280;3803;51.666;7.630;2022-08-01T00:18:45;100922.44;;;22.54;67.42
7524;BME280;3803;51.666;7.630;2022-08-01T00:19:06;100919.75;;;22.54;67.38
7524;BME280;3803;51.666;7.630;2022-08-01T00:19:27;100922.34;;;22.58;67.18
7524;BME280;3803;51.666;7.630;2022-08-01T00:19:48;100915.34;;;22.53;67.53
7524;BME280;3803;51.666;7.630;2022-08-01T00:20:12;100920.66;;;22.54;67.56
7524;BME280;3803;51.666;7.630;2022-08-01T00:20:33;100925.03;;;22.57;67.50
7524;BME280;3803;51.666;7.630;2022-08-01T00:20:55;100926.78;;;22.58;67.47
7524;BME280;3803;51.666;7.630;2022-08-01T00:21:17;100913.63;;;22.52;67.46
7524;BME280;3803;51.666;7.630;2022-08-01T00:21:38;100920.66;;;22.54;67.32
7524;BME280;3803;51.666;7.630;2022-08-01T00:21:59;100920.66;;;22.54;67.10
7524;BME280;3803;51.666;7.630;2022-08-01T00:22:20;100921.56;;;22.53;67.46
7524;BME280;3803;51.666;7.630;2022-08-01T00:22:41;100918.09;;;22.50;67.45
7524;BME280;3803;51.666;7.630;2022-08-01T00:23:03;100920.66;;;22.54;67.41
7524;BME280;3803;51.666;7.630;2022-08-01T00:23:24;100912.75;;;22.51;67.44
7524;BME280;3803;51.666;7.630;2022-08-01T00:23:45;100921.47;;;22.58;67.22
7524;BME280;3803;51.666;7.630;2022-08-01T00:24:06;100925.09;;;22.54;67.35
7524;BME280;3803;51.666;7.630;2022-08-01T00:24:27;100930.38;;;22.57;67.37
7524;BME280;3803;51.666;7.630;2022-08-01T00:24:48;100908.47;;;22.42;67.36
7524;BME280;3803;51.666;7.630;2022-08-01T00:25:09;100933.94;;;22.56;67.36
7524;BME280;3803;51.666;7.630;2022-08-01T00:25:33;100919.94;;;22.44;67.39
7524;BME280;3803;51.666;7.630;2022-08-01T00:25:53;100918.94;;;22.50;67.46
7524;BME280;3803;51.666;7.630;2022-08-01T00:26:14;100916.28;;;22.50;67.31
7524;BME280;3803;51.666;7.630;2022-08-01T00:26:36;100927.91;;;22.46;67.62
7524;BME280;3803;51.666;7.630;2022-08-01T00:26:57;100919.94;;;22.46;67.57
7524;BME280;3803;51.666;7.630;2022-08-01T00:27:18;100924.28;;;22.50;67.48
7524;BME280;3803;51.666;7.630;2022-08-01T00:27:40;100917.28;;;22.44;67.46
7524;BME280;3803;51.666;7.630;2022-08-01T00:28:01;100915.47;;;22.46;67.46
7524;BME280;3803;51.666;7.630;2022-08-01T00:28:23;100923.34;;;22.53;67.57
7524;BME280;3803;51.666;7.630;2022-08-01T00:28:44;100918.22;;;22.43;67.53
7524;BME280;3803;51.666;7.630;2022-08-01T00:29:05;100914.59;;;22.48;67.43
7524;BME280;3803;51.666;7.630;2022-08-01T00:29:26;100923.41;;;22.50;67.38
7524;BME280;3803;51.666;7.630;2022-08-01T00:29:47;100927.72;;;22.55;67.31
7524;BME280;3803;51.666;7.630;2022-08-01T00:30:08;100918.09;;;22.50;67.59
7524;BME280;3803;51.666;7.630;2022-08-01T00:30:29;100924.22;;;22.53;67.21
7524;BME280;3803;51.666;7.630;2022-08-01T00:30:50;100918.09;;;22.50;67.48
7524;BME280;3803;51.666;7.630;2022-08-01T00:31:11;100918.13;;;22.46;67.29
7524;BME280;3803;51.666;7.630;2022-08-01T00:31:32;100924.22;;;22.53;67.35
7524;BME280;3803;51.666;7.630;2022-08-01T00:31:53;100921.50;;;22.55;67.38
7524;BME280;3803;51.666;7.630;2022-08-01T00:32:14;100920.66;;;22.54;67.43
7524;BME280;3803;51.666;7.630;2022-08-01T00:32:35;100917.09;;;22.55;67.25
7524;BME280;3803;51.666;7.630;2022-08-01T00:32:56;100919.94;;;22.44;67.55
7524;BME280;3803;51.666;7.630;2022-08-01T00:33:17;100925.16;;;22.51;67.45
7524;BME280;3803;51.666;7.630;2022-08-01T00:33:38;100928.72;;;22.50;67.63
7524;BME280;3803;51.666;7.630;2022-08-01T00:34:01;100926.00;;;22.53;67.52
7524;BME280;3803;51.666;7.630;2022-08-01T00:34:22;100913.63;;;22.52;67.30
7524;BME280;3803;51.666;7.630;2022-08-01T00:34:55;100924.19;;;22.55;67.29
7524;BME280;3803;51.666;7.630;2022-08-01T00:35:17;100919.84;;;22.51;67.32
7524;BME280;3803;51.666;7.630;2022-08-01T00:35:38;100931.22;;;22.57;67.39
7524;BME280;3803;51.666;7.630;2022-08-01T00:35:59;100936.53;;;22.59;67.27
7524;BME280;3803;51.666;7.630;2022-08-01T00:36:20;100924.22;;;22.53;67.34
7524;BME280;3803;51.666;7.630;2022-08-01T00:36:44;100925.16;;;22.51;67.16
7524;BME280;3803;51.666;7.630;2022-08-01T00:37:05;100927.72;;;22.55;67.31
7524;BME280;3803;51.666;7.630;2022-08-01T00:37:26;100932.13;;;22.56;67.24
7524;BME280;3803;51.666;7.630;2022-08-01T00:37:47;100924.25;;;22.52;67.28
7524;BME280;3803;51.666;7.630;2022-08-01T00:38:08;100927.81;;;22.52;67.29
7524;BME280;3803;51.666;7.630;2022-08-01T00:38:30;100922.50;;;22.51;67.40
7524;BME280;3803;51.666;7.630;2022-08-01T00:38:51;100929.50;;;22.55;67.21
7524;BME280;3803;51.666;7.630;2022-08-01T00:39:13;100928.63;;;22.54;67.57
7524;BME280;3803;51.666;7.630;2022-08-01T00:39:34;100927.75;;;22.54;67.62
7524;BME280;3803;51.666;7.630;2022-08-01T00:39:55;100927.81;;;22.52;67.46
7524;BME280;3803;51.666;7.630;2022-08-01T00:40:16;100927.72;;;22.55;67.48
7524;BME280;3803;51.666;7.630;2022-08-01T00:40:37;100925.03;;;22.57;67.40
7524;BME280;3803;51.666;7.630;2022-08-01T00:40:58;100922.44;;;22.54;67.25
7524;BME280;3803;51.666;7.630;2022-08-01T00:41:19;100928.53;;;22.59;67.48
7524;BME280;3803;51.666;7.630;2022-08-01T00:41:41;100928.63;;;22.56;67.61
7524;BME280;3803;51.666;7.630;2022-08-01T00:42:11;100931.19;;;22.59;67.70
7524;BME280;3803;51.666;7.630;2022-08-01T00:42:33;100919.75;;;22.54;67.62
7524;BME280;3803;51.666;7.630;2022-08-01T00:42:54;100927.69;;;22.57;67.40
7524;BME280;3803;51.666;7.630;2022-08-01T00:43:15;100932.94;;;22.60;67.47
7524;BME280;3803;51.666;7.630;2022-08-01T00:43:36;100928.63;;;22.56;67.56
7524;BME280;3803;51.666;7.630;2022-08-01T00:43:58;100925.06;;;22.55;67.81
7524;BME280;3803;51.666;7.630;2022-08-01T00:44:19;100935.59;;;22.60;67.48
7524;BME280;3803;51.666;7.630;2022-08-01T00:44:40;100923.25;;;22.57;67.65
7524;BME280;3803;51.666;7.630;2022-08-01T00:45:01;100918.84;;;22.56;67.34
7524;BME280;3803;51.666;7.630;2022-08-01T00:45:22;100933.03;;;22.55;67.51
7524;BME280;3803;51.666;7.630;2022-08-01T00:45:44;100926.84;;;22.55;67.69
7524;BME280;3803;51.666;7.630;2022-08-01T00:46:05;100926.78;;;22.58;67.86
7524;BME280;3803;51.666;7.630;2022-08-01T00:46:26;100931.19;;;22.59;67.46
7524;BME280;3803;51.666;7.630;2022-08-01T00:46:47;100924.16;;;22.56;67.56
7524;BME280;3803;51.666;7.630;2022-08-01T00:47:08;100925.97;;;22.56;67.64
7524;BME280;3803;51.666;7.630;2022-08-01T00:47:29;100927.69;;;22.57;67.77
7524;BME280;3803;51.666;7.630;2022-08-01T00:47:50;100920.72;;;22.51;67.92
7524;BME280;3803;51.666;7.630;2022-08-01T00:48:11;100918.84;;;22.55;67.69
7524;BME280;3803;51.666;7.630;2022-08-01T00:48:34;100924.16;;;22.56;67.62
7524;BME280;3803;51.666;7.630;2022-08-01T00:48:55;100925.03;;;22.57;67.49
7524;BME280;3803;51.666;7.630;2022-08-01T00:49:16;100925.88;;;22.59;67.53
7524;BME280;3803;51.666;7.630;2022-08-01T00:49:37;100918.91;;;22.53;67.61
7524;BME280;3803;51.666;7.630;2022-08-01T00:49:58;100922.44;;;22.54;67.54
7524;BME280;3803;51.666;7.630;2022-08-01T00:50:19;100926.91;;;22.52;67.72
7524;BME280;3803;51.666;7.630;2022-08-01T00:50:41;100925.09;;;22.54;67.70
7524;BME280;3803;51.666;7.630;2022-08-01T00:51:03;100927.69;;;22.57;67.66
7524;BME280;3803;51.666;7.630;2022-08-01T00:51:26;100918.03;;;22.53;67.78
7524;BME280;3803;51.666;7.630;2022-08-01T00:51:47;100932.13;;;22.58;68.09
7524;BME280;3803;51.666;7.630;2022-08-01T00:52:09;100926.00;;;22.53;67.77
7524;BME280;3803;51.666;7.630;2022-08-01T00:52:34;100910.94;;;22.52;67.87
7524;BME280;3803;51.666;7.630;2022-08-01T00:52:55;100930.38;;;22.57;67.71
7524;BME280;3803;51.666;7.630;2022-08-01T00:53:18;100928.63;;;22.56;67.63
7524;BME280;3803;51.666;7.630;2022-08-01T00:53:39;100928.63;;;22.56;67.61
7524;BME280;3803;51.666;7.630;2022-08-01T00:54:01;100932.97;;;22.58;67.72
7524;BME280;3803;51.666;7.630;2022-08-01T00:54:24;100926.00;;;22.53;67.71
7524;BME280;3803;51.666;7.630;2022-08-01T00:54:46;100926.84;;;22.55;67.74
7524;BME280;3803;51.666;7.630;2022-08-01T00:55:09;100930.41;;;22.54;67.61
7524;BME280;3803;51.666;7.630;2022-08-01T00:55:35;100934.81;;;22.55;67.70
7524;BME280;3803;51.666;7.630;2022-08-01T00:55:56;100925.03;;;22.57;67.67
7524;BME280;3803;51.666;7.630;2022-08-01T00:56:24;100928.53;;;22.60;67.52
7524;BME280;3803;51.666;7.630;2022-08-01T00:56:45;100926.91;;;22.52;67.63
7524;BME280;3803;51.666;7.630;2022-08-01T00:57:06;100928.63;;;22.56;67.59
7524;BME280;3803;51.666;7.630;2022-08-01T00:57:28;100932.13;;;22.58;67.67
7524;BME280;3803;51.666;7.630;2022-08-01T00:57:50;100925.97;;;22.56;67.52
7524;BME280;3803;51.666;7.630;2022-08-01T00:58:11;100917.19;;;22.51;67.60
7524;BME280;3803;51.666;7.630;2022-08-01T00:58:33;100924.22;;;22.53;67.55
7524;BME280;3803;51.666;7.630;2022-08-01T00:58:55;100939.16;;;22.60;67.72
7524;BME280;3803;51.666;7.630;2022-08-01T00:59:20;100926.78;;;22.58;67.60
7524;BME280;3803;51.666;7.630;2022-08-01T00:59:42;100924.19;;;22.55;67.82
7524;BME280;3803;51.666;7.630;2022-08-01T01:00:04;100925.03;;;22.57;67.78
7524;BME280;3803;51.666;7.630;2022-08-01T01:00:26;100917.97;;;22.56;67.69
7524;BME280;3803;51.666;7.630;2022-08-01T01:00:47;100925.97;;;22.54;67.84
7524;BME280;3803;51.666;7.630;2022-08-01T01:01:08;100924.25;;;22.52;67.77
7524;BME280;3803;51.666;7.630;2022-08-01T01:01:30;100919.84;;;22.51;67.70
7524;BME280;3803;51.666;7.630;2022-08-01T01:01:52;100924.22;;;22.53;67.66
7524;BME280;3803;51.666;7.630;2022-08-01T01:02:13;100933.94;;;22.56;67.75
7524;BME280;3803;51.666;7.630;2022-08-01T01:02:34;100928.56;;;22.57;67.53
7524;BME280;3803;51.666;7.630;2022-08-01T01:02:56;100918.09;;;22.50;67.51
7524;BME280;3803;51.666;7.630;2022-08-01T01:03:17;100925.16;;;22.51;67.82
7524;BME280;3803;51.666;7.630;2022-08-01T01:03:39;100918.03;;;22.53;67.62
7524;BME280;3803;51.666;7.630;2022-08-01T01:04:01;100934.78;;;22.58;67.70
7524;BME280;3803;51.666;7.630;2022-08-01T01:04:23;100930.31;;;22.58;67.58
7524;BME280;3803;51.666;7.630;2022-08-01T01:04:44;100928.63;;;22.56;67.51
7524;BME280;3803;51.666;7.630;2022-08-01T01:05:05;100933.84;;;22.59;67.46
7524;BME280;3803;51.666;7.630;2022-08-01T01:05:27;100926.78;;;22.58;67.63
7524;BME280;3803;51.666;7.630;2022-08-01T01:07:06;100924.28;;;22.50;67.74
7524;BME280;3803;51.666;7.630;2022-08-01T01:08:02;100925.09;;;22.54;67.60
7524;BME280;3803;51.666;7.630;2022-08-01T01:08:32;100917.16;;;22.52;67.61
7524;BME280;3803;51.666;7.630;2022-08-01T01:10:00;100934.78;;;22.56;67.58
7524;BME280;3803;51.666;7.630;2022-08-01T01:11:04;100926.81;;;22.56;67.51
7524;BME280;3803;51.666;7.630;2022-08-01T01:11:39;100923.41;;;22.50;67.47
7524;BME280;3803;51.666;7.630;2022-08-01T01:12:20;100935.59;;;22.60;67.44
7524;BME280;3803;51.666;7.630;2022-08-01T01:13:24;100929.53;;;22.53;67.75
7524;BME280;3803;51.666;7.630;2022-08-01T01:13:53;100925.16;;;22.51;67.71
7524;BME280;3803;51.666;7.630;2022-08-01T01:14:41;100930.47;;;22.51;67.69
7524;BME280;3803;51.666;7.630;2022-08-01T01:15:10;100939.25;;;22.56;67.73
7524;BME280;3803;51.666;7.630;2022-08-01T01:15:49;100920.88;;;22.43;67.57
7524;BME280;3803;51.666;7.630;2022-08-01T01:16:13;100941.03;;;22.54;67.59
7524;BME280;3803;51.666;7.630;2022-08-01T01:16:36;100927.81;;;22.52;67.57
7524;BME280;3803;51.666;7.630;2022-08-01T01:17:02;100925.22;;;22.48;67.55
7524;BME280;3803;51.666;7.630;2022-08-01T01:17:38;100921.69;;;22.45;67.37
7524;BME280;3803;51.666;7.630;2022-08-01T01:18:54;100916.47;;;22.42;67.62
7524;BME280;3803;51.666;7.630;2022-08-01T01:18:54;100927.03;;;22.45;67.55
7524;BME280;3803;51.666;7.630;2022-08-01T01:19:23;100924.31;;;22.49;67.52
7524;BME280;3803;51.666;7.630;2022-08-01T01:19:51;100929.75;;;22.42;67.62
7524;BME280;3803;51.666;7.630;2022-08-01T01:20:16;100928.78;;;22.46;67.60
7524;BME280;3803;51.666;7.630;2022-08-01T01:20:41;100923.59;;;22.40;67.70
7524;BME280;3803;51.666;7.630;2022-08-01T01:21:46;100933.97;;;22.53;67.44
7524;BME280;3803;51.666;7.630;2022-08-01T01:22:24;100927.94;;;22.44;67.58
7524;BME280;3803;51.666;7.630;2022-08-01T01:24:13;100938.47;;;22.51;67.34
7524;BME280;3803;51.666;7.630;2022-08-01T01:25:04;100916.38;;;22.45;67.46
7524;BME280;3803;51.666;7.630;2022-08-01T01:26:04;100931.31;;;22.53;67.27
7524;BME280;3803;51.666;7.630;2022-08-01T01:27:21;100912.88;;;22.43;67.15
7524;BME280;3803;51.666;7.630;2022-08-01T01:28:57;100921.47;;;22.58;67.17
7524;BME280;3803;51.666;7.630;2022-08-01T01:29:28;100919.91;;;22.48;67.14
7524;BME280;3803;51.666;7.630;2022-08-01T01:29:56;100927.03;;;22.45;67.13
7524;BME280;3803;51.666;7.630;2022-08-01T01:30:18;100921.69;;;22.47;67.26
7524;BME280;3803;51.666;7.630;2022-08-01T01:30:41;100914.66;;;22.43;67.33
7524;BME280;3803;51.666;7.630;2022-08-01T01:31:06;100915.53;;;22.45;67.04
7524;BME280;3803;51.666;7.630;2022-08-01T01:31:32;100918.28;;;22.40;67.42
7524;BME280;3803;51.666;7.630;2022-08-01T01:32:01;100925.34;;;22.41;67.32
7524;BME280;3803;51.666;7.630;2022-08-01T01:32:30;100918.22;;;22.43;67.15
7524;BME280;3803;51.666;7.630;2022-08-01T01:32:58;100910.25;;;22.42;67.17
7524;BME280;3803;51.666;7.630;2022-08-01T01:33:21;100921.75;;;22.44;67.20
7524;BME280;3803;51.666;7.630;2022-08-01T01:33:46;100926.16;;;22.45;67.04
7524;BME280;3803;51.666;7.630;2022-08-01T01:34:11;100922.53;;;22.49;67.22
7524;BME280;3803;51.666;7.630;2022-08-01T01:34:37;100931.44;;;22.46;67.28
7524;BME280;3803;51.666;7.630;2022-08-01T01:34:58;100933.97;;;22.53;67.26
7524;BME280;3803;51.666;7.630;2022-08-01T01:35:24;100925.16;;;22.51;66.92
7524;BME280;3803;51.666;7.630;2022-08-01T01:35:51;100916.47;;;22.42;66.88
7524;BME280;3803;51.666;7.630;2022-08-01T01:36:14;100916.47;;;22.42;67.06
7524;BME280;3803;51.666;7.630;2022-08-01T01:36:38;100922.50;;;22.51;66.99
7524;BME280;3803;51.666;7.630;2022-08-01T01:37:01;100915.53;;;22.43;66.88
7524;BME280;3803;51.666;7.630;2022-08-01T01:37:25;100917.28;;;22.44;66.84
7524;BME280;3803;51.666;7.630;2022-08-01T01:37:51;100927.91;;;22.48;67.04
7524;BME280;3803;51.666;7.630;2022-08-01T01:38:19;100933.16;;;22.49;67.19
7524;BME280;3803;51.666;7.630;2022-08-01T01:38:43;100923.53;;;22.42;67.10
7524;BME280;3803;51.666;7.630;2022-08-01T01:39:05;100923.50;;;22.45;67.04
7524;BME280;3803;51.666;7.630;2022-08-01T01:39:28;100921.75;;;22.44;67.00
7524;BME280;3803;51.666;7.630;2022-08-01T01:39:51;100913.81;;;22.41;66.84
7524;BME280;3803;51.666;7.630;2022-08-01T01:40:16;100925.28;;;22.43;67.19
7524;BME280;3803;51.666;7.630;2022-08-01T01:40:38;100931.44;;;22.46;67.06
7524;BME280;3803;51.666;7.630;2022-08-01T01:41:02;100912.88;;;22.43;66.92
7524;BME280;3803;51.666;7.630;2022-08-01T01:41:23;100935.78;;;22.52;67.17
7524;BME280;3803;51.666;7.630;2022-08-01T01:41:46;100915.63;;;22.40;66.94
7524;BME280;3803;51.666;7.630;2022-08-01T01:42:09;100912.00;;;22.43;66.97
7524;BME280;3803;51.666;7.630;2022-08-01T01:42:33;100926.09;;;22.46;67.05
7524;BME280;3803;51.666;7.630;2022-08-01T01:42:55;100926.19;;;22.43;67.10
7524;BME280;3803;51.666;7.630;2022-08-01T01:43:19;100926.09;;;22.46;67.16
7524;BME280;3803;51.666;7.630;2022-08-01T01:43:41;100931.44;;;22.46;67.22
7524;BME280;3803;51.666;7.630;2022-08-01T01:44:04;100933.97;;;22.53;67.16
7524;BME280;3803;51.666;7.630;2022-08-01T01:44:27;100930.59;;;22.43;67.17
7524;BME280;3803;51.666;7.630;2022-08-01T01:44:49;100928.78;;;22.46;67.07
7524;BME280;3803;51.666;7.630;2022-08-01T01:45:11;100926.09;;;22.46;67.00
7524;BME280;3803;51.666;7.630;2022-08-01T01:45:34;100926.97;;;22.49;66.86
7524;BME280;3803;51.666;7.630;2022-08-01T01:45:55;100936.59;;;22.56;66.83
7524;BME280;3803;51.666;7.630;2022-08-01T01:46:23;100926.91;;;22.52;66.94
7524;BME280;3803;51.666;7.630;2022-08-01T01:46:48;100929.59;;;22.50;66.93
7524;BME280;3803;51.666;7.630;2022-08-01T01:47:12;100933.94;;;22.56;66.89
7524;BME280;3803;51.666;7.630;2022-08-01T01:47:36;100936.63;;;22.54;66.71
7524;BME280;3803;51.666;7.630;2022-08-01T01:48:00;100935.72;;;22.54;66.84
7524;BME280;3803;51.666;7.630;2022-08-01T01:48:26;100934.91;;;22.50;66.99
7524;BME280;3803;51.666;7.630;2022-08-01T01:48:49;100926.97;;;22.49;66.92
7524;BME280;3803;51.666;7.630;2022-08-01T01:49:11;100930.56;;;22.46;66.79
7524;BME280;3803;51.666;7.630;2022-08-01T01:49:33;100927.94;;;22.44;66.98
7524;BME280;3803;51.666;7.630;2022-08-01T01:49:55;100927.94;;;22.44;67.09
7524;BME280;3803;51.666;7.630;2022-08-01T01:50:20;100935.78;;;22.51;66.81
7524;BME280;3803;51.666;7.630;2022-08-01T01:50:43;100929.69;;;22.45;66.92
7524;BME280;3803;51.666;7.630;2022-08-01T01:51:06;100918.28;;;22.40;67.01
7524;BME280;3803;51.666;7.630;2022-08-01T01:51:29;100934.88;;;22.52;66.74
7524;BME280;3803;51.666;7.630;2022-08-01T01:51:53;100928.78;;;22.46;66.93
7524;BME280;3803;51.666;7.630;2022-08-01T01:52:16;100944.50;;;22.59;66.91
7524;BME280;3803;51.666;7.630;2022-08-01T01:52:39;100927.81;;;22.52;66.54
7524;BME280;3803;51.666;7.630;2022-08-01T01:53:02;100940.09;;;22.58;66.78
7524;BME280;3803;51.666;7.630;2022-08-01T01:53:26;100927.91;;;22.48;66.58
7524;BME280;3803;51.666;7.630;2022-08-01T01:53:48;100939.28;;;22.53;66.37
7524;BME280;3803;51.666;7.630;2022-08-01T01:54:10;100944.59;;;22.53;66.76
7524;BME280;3803;51.666;7.630;2022-08-01T01:54:35;100940.19;;;22.52;66.71
7524;BME280;3803;51.666;7.630;2022-08-01T01:54:58;100928.78;;;22.46;66.31
7524;BME280;3803;51.666;7.630;2022-08-01T01:55:21;100942.94;;;22.49;66.61
7524;BME280;3803;51.666;7.630;2022-08-01T01:55:46;100924.44;;;22.42;66.58
7524;BME280;3803;51.666;7.630;2022-08-01T01:56:09;100935.78;;;22.51;66.57
7524;BME280;3803;51.666;7.630;2022-08-01T01:56:35;100935.78;;;22.51;66.27
7524;BME280;3803;51.666;7.630;2022-08-01T01:57:09;100933.25;;;22.43;66.24
7524;BME280;3803;51.666;7.630;2022-08-01T01:57:32;100927.19;;;22.36;66.42
7524;BME280;3803;51.666;7.630;2022-08-01T01:57:56;100935.91;;;22.44;66.24
7524;BME280;3803;51.666;7.630;2022-08-01T01:58:19;100932.41;;;22.42;66.29
7524;BME280;3803;51.666;7.630;2022-08-01T01:58:44;100937.78;;;22.39;66.34
7524;BME280;3803;51.666;7.630;2022-08-01T01:59:07;100943.03;;;22.42;66.25
7524;BME280;3803;51.666;7.630;2022-08-01T01:59:30;100938.59;;;22.43;66.09
7524;BME280;3803;51.666;7.630;2022-08-01T01:59:53;100925.38;;;22.38;65.98
7524;BME280;3803;51.666;7.630;2022-08-01T02:00:15;100935.91;;;22.44;66.14
7524;BME280;3803;51.666;7.630;2022-08-01T02:00:36;100927.22;;;22.35;66.22
7524;BME280;3803;51.666;7.630;2022-08-01T02:00:59;100941.41;;;22.35;66.43
7524;BME280;3803;51.666;7.630;2022-08-01T02:01:28;100919.44;;;22.25;66.26
7524;BME280;3803;51.666;7.630;2022-08-01T02:01:51;100937.81;;;22.38;66.39
7524;BME280;3803;51.666;7.630;2022-08-01T02:02:14;100927.28;;;22.33;66.09
7524;BME280;3803;51.666;7.630;2022-08-01T02:02:36;100929.03;;;22.34;66.22
7524;BME280;3803;51.666;7.630;2022-08-01T02:02:58;100944.00;;;22.38;66.36
7524;BME280;3803;51.666;7.630;2022-08-01T02:03:22;100935.25;;;22.33;66.36
7524;BME280;3803;51.666;7.630;2022-08-01T02:03:45;100934.38;;;22.31;65.98
7524;BME280;3803;51.666;7.630;2022-08-01T02:04:07;100934.44;;;22.28;66.41
7524;BME280;3803;51.666;7.630;2022-08-01T02:04:29;100927.38;;;22.27;66.43
7524;BME280;3803;51.666;7.630;2022-08-01T02:04:53;100928.28;;;22.27;66.21
7524;BME280;3803;51.666;7.630;2022-08-01T02:05:15;100930.09;;;22.22;66.43
7524;BME280;3803;51.666;7.630;2022-08-01T02:05:37;100930.09;;;22.22;66.28
7524;BME280;3803;51.666;7.630;2022-08-01T02:06:00;100926.63;;;22.17;66.29
7524;BME280;3803;51.666;7.630;2022-08-01T02:06:25;100936.25;;;22.23;66.34
7524;BME280;3803;51.666;7.630;2022-08-01T02:06:50;100940.72;;;22.24;66.13
7524;BME280;3803;51.666;7.630;2022-08-01T02:07:13;100949.47;;;22.29;66.31
7524;BME280;3803;51.666;7.630;2022-08-01T02:07:37;100941.59;;;22.23;66.23
7524;BME280;3803;51.666;7.630;2022-08-01T02:07:59;100942.47;;;22.25;66.32
7524;BME280;3803;51.666;7.630;2022-08-01T02:08:22;100930.25;;;22.13;66.61
7524;BME280;3803;51.666;7.630;2022-08-01T02:08:47;100942.53;;;22.20;66.50
7524;BME280;3803;51.666;7.630;2022-08-01T02:09:09;100941.63;;;22.21;66.51
7524;BME280;3803;51.666;7.630;2022-08-01T02:09:34;100947.84;;;22.20;66.44
7524;BME280;3803;51.666;7.630;2022-08-01T02:10:00;100939.16;;;22.12;66.41
7524;BME280;3803;51.666;7.630;2022-08-01T02:10:23;100933.00;;;22.08;66.47
7524;BME280;3803;51.666;7.630;2022-08-01T02:10:46;100932.94;;;22.11;66.49
7524;BME280;3803;51.666;7.630;2022-08-01T02:11:27;100925.97;;;22.05;66.33
7524;BME280;3803;51.666;7.630;2022-08-01T02:11:50;100948.03;;;22.09;66.54
7524;BME280;3803;51.666;7.630;2022-08-01T02:12:14;100940.94;;;22.10;66.59
7524;BME280;3803;51.666;7.630;2022-08-01T02:12:39;100929.66;;;21.97;66.53
7524;BME280;3803;51.666;7.630;2022-08-01T02:13:03;100940.09;;;22.06;66.54
7524;BME280;3803;51.666;7.630;2022-08-01T02:13:25;100932.25;;;22.00;66.36
7524;BME280;3803;51.666;7.630;2022-08-01T02:14:14;100932.38;;;21.92;66.51